createdAt,value
2016-01-16T12:13:47.066Z,20.65
2016-01-16T12:14:47.037Z,20.61
2016-01-16T12:15:47.072Z,20.38
2016-01-16T12:16:47.121Z,20.16
2016-01-16T12:17:47.155Z,20.15
2016-01-16T12:18:47.220Z,20.1
2016-01-16T12:19:47.270Z,19.94
2016-01-16T12:20:47.288Z,20.01
2016-01-16T12:21:47.291Z,20.03
2016-01-16T12:22:47.340Z,20
2016-01-16T12:23:47.390Z,19.94
2016-01-16T12:24:47.455Z,19.9
2016-01-16T12:25:47.490Z,19.82
2016-01-16T12:26:47.554Z,19.82
2016-01-16T12:27:47.557Z,19.76
2016-01-16T12:28:47.638Z,19.65
2016-01-16T12:29:47.641Z,19.8
2016-01-16T12:30:47.706Z,19.82
2016-01-16T12:31:47.770Z,19.83
2016-01-16T12:32:47.790Z,19.82
2016-01-16T12:33:47.824Z,19.79
2016-01-16T12:34:47.889Z,19.91
2016-01-16T12:35:48.095Z,19.94
2016-01-16T12:36:47.987Z,19.87
2016-01-16T12:37:48.006Z,19.8
2016-01-16T12:38:48.056Z,19.79
2016-01-16T12:39:48.089Z,19.68
2016-01-16T12:40:48.123Z,19.64
2016-01-16T12:41:48.173Z,19.68
2016-01-16T12:42:48.222Z,19.61
2016-01-16T12:43:48.288Z,19.69
2016-01-16T12:44:48.306Z,19.69
2016-01-16T12:45:48.340Z,19.63
2016-01-16T12:46:48.405Z,19.58
2016-01-16T12:47:48.424Z,19.53
2016-01-16T12:48:48.489Z,19.57
2016-01-16T12:49:48.507Z,19.51
2016-01-16T12:50:48.557Z,19.51
2016-01-16T12:51:48.591Z,19.54
2016-01-16T12:52:48.641Z,19.45
2016-01-16T12:53:48.674Z,19.46
2016-01-16T12:54:48.755Z,19.46
2016-01-16T12:55:48.774Z,19.42
2016-01-16T12:56:48.791Z,19.5
2016-01-16T12:57:48.857Z,19.43
2016-01-16T12:58:48.891Z,19.5
2016-01-16T12:59:48.940Z,19.46
2016-01-16T13:00:48.990Z,19.46
2016-01-16T13:01:49.071Z,19.43
2016-01-16T13:02:48.962Z,19.42
2016-01-16T13:03:49.089Z,19.38
2016-01-16T13:04:49.139Z,19.4
2016-01-16T13:05:49.189Z,19.32
2016-01-16T13:06:49.206Z,19.42
2016-01-16T13:07:49.287Z,19.42
2016-01-16T13:08:49.353Z,19.48
2016-01-16T13:09:49.403Z,19.48
2016-01-16T13:10:49.405Z,19.42
2016-01-16T13:11:49.486Z,19.45
2016-01-16T13:12:49.489Z,19.39
2016-01-16T13:13:49.554Z,19.46
2016-01-16T13:14:49.572Z,19.51
2016-01-16T13:15:49.637Z,19.51
2016-01-16T13:16:49.672Z,19.64
2016-01-16T13:17:49.705Z,19.55
2016-01-16T13:18:49.739Z,19.55
2016-01-16T13:19:49.773Z,19.6
2016-01-16T13:20:49.792Z,19.64
2016-01-16T13:21:49.873Z,19.68
2016-01-16T13:22:49.937Z,19.63
2016-01-16T13:23:49.972Z,19.63
2016-01-16T13:24:49.974Z,19.64
2016-01-16T13:25:50.039Z,19.69
2016-01-16T13:26:50.073Z,19.75
2016-01-16T13:27:50.123Z,19.76
2016-01-16T13:28:50.157Z,19.71
2016-01-16T13:29:50.222Z,19.69
2016-01-16T13:30:50.240Z,19.64
2016-01-16T13:31:50.290Z,19.72
2016-01-16T13:32:50.340Z,19.61
2016-01-16T13:33:50.390Z,19.58
2016-01-16T13:34:50.454Z,19.54
2016-01-16T13:35:50.473Z,19.53
2016-01-16T13:36:50.522Z,19.5
2016-01-16T13:37:50.540Z,19.53
2016-01-16T13:38:50.590Z,19.55
2016-01-16T13:39:50.640Z,19.45
2016-01-16T13:40:50.751Z,19.6
2016-01-16T13:41:50.739Z,19.51
2016-01-16T13:42:50.789Z,19.48
2016-01-16T13:43:50.822Z,19.43
2016-01-16T13:44:50.840Z,19.57
2016-01-16T13:45:50.890Z,19.55
2016-01-16T13:46:50.956Z,19.5
2016-01-16T13:47:50.973Z,19.48
2016-01-16T13:48:51.023Z,19.58
2016-01-16T13:49:51.088Z,19.53
2016-01-16T13:50:51.106Z,19.4
2016-01-16T13:51:51.141Z,19.46
2016-01-16T13:52:51.190Z,19.5
2016-01-16T13:53:51.208Z,19.48
2016-01-16T13:54:51.274Z,19.48
2016-01-16T13:55:51.338Z,19.51
2016-01-16T13:56:51.341Z,19.48
2016-01-16T13:57:51.407Z,19.48
2016-01-16T13:58:51.440Z,19.63
2016-01-16T13:59:51.490Z,19.72
2016-01-16T14:00:51.524Z,19.75
2016-01-16T14:01:51.574Z,19.93
2016-01-16T14:02:51.607Z,20.09
2016-01-16T14:03:51.657Z,20.15
2016-01-16T14:04:51.707Z,20.06
2016-01-16T14:05:51.741Z,20.03
2016-01-16T14:06:51.806Z,19.8
2016-01-16T14:07:51.824Z,19.88
2016-01-16T14:08:51.843Z,20.01
2016-01-16T14:09:51.924Z,20.13
2016-01-16T14:10:51.973Z,20.2
2016-01-16T14:11:52.007Z,20.18
2016-01-16T14:12:52.057Z,20.12
2016-01-16T14:13:52.076Z,20.09
2016-01-16T14:14:52.125Z,20.05
2016-01-16T14:15:52.174Z,20.03
2016-01-16T14:16:52.224Z,19.94
2016-01-16T14:17:52.289Z,19.8
2016-01-16T14:18:52.322Z,19.71
2016-01-16T14:19:52.342Z,19.63
2016-01-16T14:20:52.375Z,19.65
2016-01-16T14:21:52.408Z,19.63
2016-01-16T14:22:52.475Z,19.55
2016-01-16T14:23:52.524Z,19.64
2016-01-16T14:24:52.542Z,19.54
2016-01-16T14:25:52.607Z,19.5
2016-01-16T14:26:52.641Z,19.45
2016-01-16T14:27:52.706Z,19.48
2016-01-16T14:28:52.724Z,19.51
2016-01-16T14:29:52.758Z,19.38
2016-01-16T14:30:52.839Z,19.4
2016-01-16T14:31:52.858Z,19.42
2016-01-16T14:32:52.923Z,19.28
2016-01-16T14:33:52.957Z,19.31
2016-01-16T14:34:52.991Z,19.38
2016-01-16T14:35:53.024Z,19.32
2016-01-16T14:36:53.059Z,19.27
2016-01-16T14:37:53.093Z,19.15
2016-01-16T14:38:53.174Z,19.21
2016-01-16T14:39:53.192Z,19.2
2016-01-16T14:40:53.240Z,19.17
2016-01-16T14:41:53.260Z,19.13
2016-01-16T14:42:53.325Z,19.13
2016-01-16T14:43:53.373Z,19.13
2016-01-16T14:44:53.409Z,19.13
2016-01-16T14:45:53.443Z,19.11
2016-01-16T14:46:53.476Z,19.08
2016-01-16T14:47:53.525Z,19.2
2016-01-16T14:48:53.591Z,19.17
2016-01-16T14:49:53.640Z,19.21
2016-01-16T14:50:53.658Z,19.23
2016-01-16T14:51:53.692Z,19.2
2016-01-16T14:52:53.742Z,19.18
2016-01-16T14:53:53.807Z,19.23
2016-01-16T14:54:53.825Z,19.27
2016-01-16T14:55:53.875Z,19.33
2016-01-16T14:56:53.909Z,19.35
2016-01-16T14:57:53.975Z,19.35
2016-01-16T14:58:54.055Z,19.38
2016-01-16T14:59:54.042Z,19.38
2016-01-16T15:00:54.092Z,19.32
2016-01-16T15:01:54.127Z,19.42
2016-01-16T15:02:54.207Z,19.51
2016-01-16T15:03:54.225Z,19.4
2016-01-16T15:04:54.275Z,19.4
2016-01-16T15:05:54.277Z,19.33
2016-01-16T15:06:54.310Z,19.35
2016-01-16T15:07:54.360Z,19.33
2016-01-16T15:08:54.441Z,19.53
2016-01-16T15:09:54.476Z,19.43
2016-01-16T15:10:54.525Z,19.43
2016-01-16T15:11:54.543Z,19.33
2016-01-16T15:12:54.577Z,19.45
2016-01-16T15:13:54.674Z,19.51
2016-01-16T15:14:54.676Z,19.43
2016-01-16T15:15:54.757Z,19.5
2016-01-16T15:16:54.776Z,19.46
2016-01-16T15:17:54.825Z,19.45
2016-01-16T15:18:54.828Z,19.48
2016-01-16T15:19:54.878Z,19.51
2016-01-16T15:20:54.928Z,19.53
2016-01-16T15:21:54.992Z,19.53
2016-01-16T15:22:55.026Z,19.46
2016-01-16T15:23:55.061Z,19.46
2016-01-16T15:24:55.094Z,19.48
2016-01-16T15:25:55.159Z,19.43
2016-01-16T15:26:55.194Z,19.46
2016-01-16T15:27:55.258Z,19.53
2016-01-16T15:28:55.261Z,19.43
2016-01-16T15:29:55.326Z,19.48
2016-01-16T15:30:55.360Z,19.5
2016-01-16T15:31:55.410Z,19.54
2016-01-16T15:32:55.506Z,19.48
2016-01-16T15:33:55.508Z,19.61
2016-01-16T15:34:55.511Z,19.57
2016-01-16T15:35:55.560Z,19.57
2016-01-16T15:36:55.610Z,19.64
2016-01-16T15:37:55.676Z,19.57
2016-01-16T15:38:55.710Z,19.68
2016-01-16T15:39:55.821Z,19.69
2016-01-16T15:40:55.809Z,19.72
2016-01-16T15:41:55.827Z,19.61
2016-01-16T15:42:56.705Z,19.71
2016-01-16T15:43:55.943Z,19.65
2016-01-16T15:44:55.976Z,19.64
2016-01-16T15:45:56.026Z,19.63
2016-01-16T15:46:56.059Z,19.64
2016-01-16T15:47:56.203Z,19.64
2016-01-16T15:48:56.190Z,19.68
2016-01-16T15:49:56.193Z,19.65
2016-01-16T15:50:56.242Z,19.65
2016-01-16T15:51:56.261Z,19.64
2016-01-16T15:52:56.309Z,19.61
2016-01-16T15:53:56.391Z,19.64
2016-01-16T15:54:56.409Z,19.64
2016-01-16T15:55:56.458Z,19.65
2016-01-16T15:56:56.695Z,19.6
2016-01-16T15:57:56.620Z,19.58
2016-01-16T15:58:56.450Z,19.58
2016-01-16T15:59:56.626Z,19.5
2016-01-16T16:00:56.675Z,19.48
2016-01-16T16:01:56.741Z,19.48
2016-01-16T16:02:56.744Z,19.53
2016-01-16T16:03:56.839Z,19.45
2016-01-16T16:04:56.827Z,19.33
2016-01-16T16:05:56.907Z,19.46
2016-01-16T16:06:56.911Z,19.38
2016-01-16T16:07:56.944Z,19.45
2016-01-16T16:08:57.010Z,19.5
2016-01-16T16:09:57.059Z,19.48
2016-01-16T16:10:57.108Z,19.46
2016-01-16T16:11:57.157Z,19.38
2016-01-16T16:12:57.192Z,19.43
2016-01-16T16:13:57.051Z,19.38
2016-01-16T16:14:57.241Z,19.35
2016-01-16T16:15:57.323Z,19.33
2016-01-16T16:16:57.356Z,19.38
2016-01-16T16:17:57.343Z,19.31
2016-01-16T16:18:57.471Z,19.33
2016-01-16T16:19:57.458Z,19.5
2016-01-16T16:20:57.321Z,19.48
2016-01-16T16:21:57.542Z,19.42
2016-01-16T16:22:57.592Z,19.46
2016-01-16T16:23:58.001Z,19.42
2016-01-16T16:24:57.831Z,19.48
2016-01-16T16:25:57.990Z,19.51
2016-01-16T16:26:59.400Z,19.57
2016-01-16T16:27:57.887Z,19.58
2016-01-16T16:28:57.904Z,19.63
2016-01-16T16:29:58.768Z,19.64
2016-01-16T16:30:57.926Z,19.64
2016-01-16T16:31:58.070Z,19.64
2016-01-16T16:32:58.041Z,19.68
2016-01-16T16:33:58.044Z,19.73
2016-01-16T16:34:58.281Z,19.69
2016-01-16T16:35:58.112Z,19.64
2016-01-16T16:36:58.208Z,19.75
2016-01-16T16:37:58.196Z,19.72
2016-01-16T16:38:58.245Z,19.69
2016-01-16T16:39:58.326Z,19.51
2016-01-16T16:40:58.391Z,19.58
2016-01-16T16:41:58.378Z,19.53
2016-01-16T16:42:59.099Z,19.53
2016-01-16T16:43:58.525Z,19.53
2016-01-16T16:44:58.792Z,19.6
2016-01-16T16:45:58.576Z,19.53
2016-01-16T16:46:59.048Z,19.58
2016-01-16T16:47:58.629Z,19.46
2016-01-16T16:48:58.725Z,19.6
2016-01-16T16:49:58.837Z,19.54
2016-01-16T16:50:58.887Z,19.54
2016-01-16T16:51:58.952Z,19.55
2016-01-16T16:52:58.862Z,19.5
2016-01-16T16:53:58.927Z,19.54
2016-01-16T16:54:58.945Z,19.5
2016-01-16T16:55:58.964Z,19.53
2016-01-16T16:56:59.107Z,19.51
2016-01-16T16:57:59.047Z,19.43
2016-01-16T16:58:59.080Z,19.38
2016-01-16T16:59:59.131Z,19.45
2016-01-16T17:00:59.197Z,19.5
2016-01-16T17:01:59.230Z,19.5
2016-01-16T17:02:59.267Z,19.46
2016-01-16T17:03:59.317Z,19.5
2016-01-16T17:04:59.335Z,19.4
2016-01-16T17:05:59.401Z,19.4
2016-01-16T17:06:59.434Z,19.46
2016-01-16T17:07:59.500Z,19.39
2016-01-16T17:08:59.534Z,19.45
2016-01-16T17:09:59.568Z,19.33
2016-01-16T17:10:59.617Z,19.39
2016-01-16T17:11:59.651Z,19.46
2016-01-16T17:12:59.701Z,19.51
2016-01-16T17:13:59.734Z,19.46
2016-01-16T17:14:59.784Z,19.4
2016-01-16T17:15:59.803Z,19.39
2016-01-16T17:16:59.852Z,19.45
2016-01-16T17:17:59.902Z,19.48
2016-01-16T17:18:59.951Z,19.39
2016-01-16T17:19:59.985Z,19.5
2016-01-16T17:21:00.051Z,19.51
2016-01-16T17:22:00.052Z,19.5
2016-01-16T17:23:00.118Z,19.48
2016-01-16T17:24:00.168Z,19.5
2016-01-16T17:25:00.218Z,19.45
2016-01-16T17:26:00.235Z,19.51
2016-01-16T17:27:00.285Z,19.45
2016-01-16T17:28:00.335Z,19.5
2016-01-16T17:29:00.385Z,19.64
2016-01-16T17:30:00.403Z,19.61
2016-01-16T17:31:00.437Z,19.63
2016-01-16T17:32:00.502Z,19.6
2016-01-16T17:33:00.598Z,19.65
2016-01-16T17:34:00.601Z,19.55
2016-01-16T17:35:00.682Z,19.6
2016-01-16T17:36:00.732Z,19.64
2016-01-16T17:37:00.719Z,19.64
2016-01-16T17:38:00.768Z,19.65
2016-01-16T17:39:00.817Z,19.63
2016-01-16T17:40:00.837Z,19.65
2016-01-16T17:41:00.886Z,19.63
2016-01-16T17:42:00.934Z,19.57
2016-01-16T17:43:01.017Z,19.57
2016-01-16T17:44:01.034Z,19.6
2016-01-16T17:45:01.256Z,19.58
2016-01-16T17:46:00.414Z,19.69
2016-01-16T17:47:01.167Z,19.63
2016-01-16T17:48:01.201Z,19.63
2016-01-16T17:49:01.250Z,19.64
2016-01-16T17:50:01.300Z,19.63
2016-01-16T17:51:01.584Z,19.6
2016-01-16T17:52:01.369Z,19.54
2016-01-16T17:53:01.433Z,19.6
2016-01-16T17:54:01.500Z,19.5
2016-01-16T17:55:01.642Z,19.54
2016-01-16T17:56:01.611Z,19.45
2016-01-16T17:57:01.679Z,19.5
2016-01-16T17:58:01.713Z,19.5
2016-01-16T17:59:01.778Z,19.5
2016-01-16T18:00:01.716Z,19.53
2016-01-16T18:01:01.749Z,19.55
2016-01-16T18:02:01.783Z,19.46
2016-01-16T18:03:01.833Z,19.42
2016-01-16T18:04:01.961Z,19.48
2016-01-16T18:05:01.979Z,19.42
2016-01-16T18:06:02.013Z,19.45
2016-01-16T18:07:02.078Z,19.55
2016-01-16T18:08:02.050Z,19.54
2016-01-16T18:09:02.084Z,19.63
2016-01-16T18:10:02.133Z,19.64
2016-01-16T18:11:02.151Z,19.61
2016-01-16T18:12:02.202Z,19.69
2016-01-16T18:13:02.251Z,19.65
2016-01-16T18:14:02.316Z,19.63
2016-01-16T18:15:02.334Z,19.68
2016-01-16T18:16:02.368Z,19.72
2016-01-16T18:17:02.417Z,19.79
2016-01-16T18:18:02.468Z,19.79
2016-01-16T18:19:02.517Z,19.82
2016-01-16T18:20:02.566Z,19.88
2016-01-16T18:21:02.569Z,19.88
2016-01-16T18:22:02.603Z,19.95
2016-01-16T18:23:02.653Z,19.93
2016-01-16T18:24:02.702Z,19.94
2016-01-16T18:25:02.752Z,19.82
2016-01-16T18:26:02.786Z,19.94
2016-01-16T18:27:02.836Z,20.01
2016-01-16T18:28:02.886Z,20.08
2016-01-16T18:29:02.919Z,20.03
2016-01-16T18:30:02.968Z,20.12
2016-01-16T18:31:03.003Z,20.06
2016-01-16T18:32:03.052Z,20.05
2016-01-16T18:33:03.086Z,20
2016-01-16T18:34:03.152Z,19.93
2016-01-16T18:35:03.200Z,20
2016-01-16T18:36:03.219Z,19.98
2016-01-16T18:37:03.269Z,20.03
2016-01-16T18:38:03.302Z,20.03
2016-01-16T18:39:03.351Z,20.05
2016-01-16T18:40:03.402Z,20.01
2016-01-16T18:41:03.451Z,20.15
2016-01-16T18:42:03.469Z,20.15
2016-01-16T18:43:03.535Z,20.08
2016-01-16T18:44:03.553Z,20.18
2016-01-16T18:45:03.618Z,20.13
2016-01-16T18:46:03.636Z,20.08
2016-01-16T18:47:03.701Z,20.05
2016-01-16T18:48:03.735Z,20.05
2016-01-16T18:49:03.784Z,20.15
2016-01-16T18:50:03.804Z,20.12
2016-01-16T18:51:03.868Z,20.1
2016-01-16T18:52:03.746Z,20.01
2016-01-16T18:53:03.953Z,20
2016-01-16T18:54:03.987Z,20
2016-01-16T18:55:04.020Z,20.05
2016-01-16T18:56:04.086Z,20
2016-01-16T18:57:04.135Z,20
2016-01-16T18:58:04.154Z,19.97
2016-01-16T18:59:04.220Z,19.88
2016-01-16T19:00:04.254Z,19.87
2016-01-16T19:01:04.334Z,19.94
2016-01-16T19:02:04.337Z,19.95
2016-01-16T19:03:04.371Z,19.94
2016-01-16T19:04:04.436Z,19.83
2016-01-16T19:05:04.486Z,19.91
2016-01-16T19:06:18.614Z,19.91
2016-01-16T19:07:04.537Z,19.9
2016-01-16T19:08:04.587Z,19.9
2016-01-16T19:09:04.637Z,19.94
2016-01-16T19:10:04.687Z,19.9
2016-01-16T19:11:04.705Z,19.9
2016-01-16T19:12:04.770Z,19.88
2016-01-16T19:13:04.788Z,19.86
2016-01-16T19:14:04.853Z,19.83
2016-01-16T19:15:04.888Z,19.88
2016-01-16T19:16:04.937Z,19.87
2016-01-16T19:17:04.986Z,19.87
2016-01-16T19:18:05.021Z,19.94
2016-01-16T19:19:05.069Z,19.87
2016-01-16T19:20:05.105Z,19.93
2016-01-16T19:21:05.138Z,19.94
2016-01-16T19:22:05.203Z,19.87
2016-01-16T19:23:05.222Z,19.88
2016-01-16T19:24:05.303Z,19.88
2016-01-16T19:25:05.322Z,19.94
2016-01-16T19:26:05.371Z,19.9
2016-01-16T19:27:05.388Z,19.93
2016-01-16T19:28:05.455Z,19.91
2016-01-16T19:29:05.519Z,19.91
2016-01-16T19:30:05.569Z,19.95
2016-01-16T19:31:05.572Z,19.88
2016-01-16T19:32:05.638Z,19.9
2016-01-16T19:33:05.687Z,19.9
2016-01-16T19:34:05.721Z,19.91
2016-01-16T19:35:05.771Z,19.95
2016-01-16T19:36:05.788Z,19.93
2016-01-16T19:37:05.838Z,19.88
2016-01-16T19:38:05.872Z,19.9
2016-01-16T19:39:05.922Z,19.88
2016-01-16T19:40:05.971Z,19.83
2016-01-16T19:41:06.005Z,19.9
2016-01-16T19:42:06.055Z,19.91
2016-01-16T19:43:06.073Z,19.87
2016-01-16T19:44:06.137Z,19.87
2016-01-16T19:45:06.173Z,19.94
2016-01-16T19:46:06.206Z,19.82
2016-01-16T19:47:06.270Z,19.87
2016-01-16T19:48:06.320Z,19.8
2016-01-16T19:49:06.339Z,19.91
2016-01-16T19:50:06.419Z,19.86
2016-01-16T19:51:06.422Z,19.87
2016-01-16T19:52:06.488Z,19.79
2016-01-16T19:53:06.506Z,19.82
2016-01-16T19:54:06.571Z,19.8
2016-01-16T19:55:06.636Z,19.83
2016-01-16T19:56:06.655Z,19.86
2016-01-16T19:57:06.689Z,19.83
2016-01-16T19:58:06.738Z,19.78
2016-01-16T19:59:06.788Z,19.78
2016-01-16T20:00:06.806Z,19.78
2016-01-16T20:01:06.872Z,19.65
2016-01-16T20:02:06.921Z,19.64
2016-01-16T20:03:06.955Z,19.64
2016-01-16T20:04:07.005Z,19.68
2016-01-16T20:05:07.039Z,19.68
2016-01-16T20:06:07.057Z,19.71
2016-01-16T20:07:07.122Z,19.72
2016-01-16T20:08:07.172Z,19.72
2016-01-16T20:09:07.049Z,19.63
2016-01-16T20:10:07.287Z,19.68
2016-01-16T20:11:07.304Z,19.71
2016-01-16T20:12:07.338Z,19.73
2016-01-16T20:13:07.388Z,19.73
2016-01-16T20:14:07.406Z,19.68
2016-01-16T20:15:07.471Z,19.68
2016-01-16T20:16:07.646Z,19.73
2016-01-16T20:17:07.617Z,19.79
2016-01-16T20:18:07.587Z,19.78
2016-01-16T20:19:07.625Z,19.87
2016-01-16T20:20:07.648Z,19.82
2016-01-16T20:21:07.686Z,19.83
2016-01-16T20:22:07.708Z,19.82
2016-01-16T20:23:07.778Z,19.8
2016-01-16T20:24:07.777Z,19.93
2016-01-16T20:25:07.839Z,19.83
2016-01-16T20:26:07.931Z,19.79
2016-01-16T20:27:07.899Z,19.83
2016-01-16T20:28:07.945Z,19.86
2016-01-16T20:29:08.009Z,19.82
2016-01-16T20:30:08.119Z,19.83
2016-01-16T20:31:08.120Z,19.79
2016-01-16T20:32:08.091Z,19.8
2016-01-16T20:33:08.185Z,19.86
2016-01-16T20:34:08.187Z,19.78
2016-01-16T20:35:08.253Z,19.83
2016-01-16T20:36:08.396Z,19.83
2016-01-16T20:37:08.319Z,19.93
2016-01-16T20:38:08.369Z,19.86
2016-01-16T20:39:08.418Z,19.82
2016-01-16T20:40:08.451Z,19.88
2016-01-16T20:41:08.469Z,19.82
2016-01-16T20:42:08.534Z,19.93
2016-01-16T20:43:08.568Z,19.88
2016-01-16T20:44:08.633Z,19.9
2016-01-16T20:45:08.652Z,19.8
2016-01-16T20:46:08.732Z,19.76
2016-01-16T20:47:08.735Z,19.69
2016-01-16T20:48:08.800Z,19.65
2016-01-16T20:49:08.834Z,19.63
2016-01-16T20:50:08.899Z,19.65
2016-01-16T20:51:08.918Z,19.63
2016-01-16T20:52:08.952Z,19.64
2016-01-16T20:53:09.001Z,19.61
2016-01-16T20:54:09.035Z,19.61
2016-01-16T20:55:09.101Z,19.64
2016-01-16T20:56:09.118Z,19.55
2016-01-16T20:57:09.215Z,19.57
2016-01-16T20:58:09.218Z,19.64
2016-01-16T20:59:09.298Z,19.68
2016-01-16T21:00:09.317Z,19.57
2016-01-16T21:01:09.382Z,19.63
2016-01-16T21:02:09.416Z,19.58
2016-01-16T21:03:09.419Z,19.61
2016-01-16T21:04:09.499Z,19.57
2016-01-16T21:05:09.517Z,19.58
2016-01-16T21:06:09.567Z,19.54
2016-01-16T21:07:09.647Z,19.63
2016-01-16T21:08:09.635Z,19.58
2016-01-16T21:09:09.669Z,19.54
2016-01-16T21:10:09.703Z,19.63
2016-01-16T21:11:09.752Z,19.5
2016-01-16T21:12:09.818Z,19.43
2016-01-16T21:13:09.883Z,19.38
2016-01-16T21:14:09.871Z,19.27
2016-01-16T21:15:09.935Z,19.25
2016-01-16T21:16:09.969Z,19.24
2016-01-16T21:17:10.004Z,19.27
2016-01-16T21:18:10.068Z,19.4
2016-01-16T21:19:10.102Z,19.42
2016-01-16T21:20:10.152Z,19.46
2016-01-16T21:21:10.170Z,19.46
2016-01-16T21:22:10.220Z,19.48
2016-01-16T21:23:10.253Z,19.45
2016-01-16T21:24:10.303Z,19.46
2016-01-16T21:25:10.368Z,19.46
2016-01-16T21:26:10.386Z,19.38
2016-01-16T21:27:10.436Z,19.33
2016-01-16T21:28:10.501Z,19.45
2016-01-16T21:29:10.520Z,19.45
2016-01-16T21:30:10.569Z,19.33
2016-01-16T21:31:10.494Z,19.42
2016-01-16T21:32:10.653Z,19.46
2016-01-16T21:33:13.734Z,19.32
2016-01-16T21:34:10.767Z,19.32
2016-01-16T21:35:10.770Z,19.46
2016-01-16T21:36:10.820Z,19.33
2016-01-16T21:37:10.854Z,19.43
2016-01-16T21:38:10.903Z,19.45
2016-01-16T21:39:10.922Z,19.46
2016-01-16T21:40:11.018Z,19.43
2016-01-16T21:41:11.006Z,19.51
2016-01-16T21:42:11.071Z,19.51
2016-01-16T21:43:11.104Z,19.51
2016-01-16T21:44:11.154Z,19.58
2016-01-16T21:45:11.219Z,19.54
2016-01-16T21:46:11.252Z,19.58
2016-01-16T21:47:11.287Z,19.54
2016-01-16T21:48:11.321Z,19.51
2016-01-16T21:49:11.355Z,19.51
2016-01-16T21:50:11.435Z,19.5
2016-01-16T21:51:11.470Z,19.5
2016-01-16T21:52:11.519Z,19.45
2016-01-16T21:53:11.538Z,19.42
2016-01-16T21:54:11.603Z,19.5
2016-01-16T21:55:11.684Z,19.43
2016-01-16T21:56:11.701Z,19.5
2016-01-16T21:57:11.704Z,19.5
2016-01-16T21:58:11.785Z,19.4
2016-01-16T21:59:11.804Z,19.42
2016-01-16T22:00:11.901Z,19.46
2016-01-16T22:01:11.872Z,19.43
2016-01-16T22:02:11.920Z,19.39
2016-01-16T22:03:11.971Z,19.24
2016-01-16T22:04:12.020Z,19.27
2016-01-16T22:05:12.053Z,19.23
2016-01-16T22:06:12.104Z,19.13
2016-01-16T22:07:12.184Z,19.23
2016-01-16T22:08:12.218Z,19.23
2016-01-16T22:09:12.205Z,19.14
2016-01-16T22:10:12.255Z,19.23
2016-01-16T22:11:12.305Z,19.17
2016-01-16T22:12:12.338Z,19.14
2016-01-16T22:13:12.419Z,19.14
2016-01-16T22:14:12.407Z,19.11
2016-01-16T22:15:12.471Z,19.11
2016-01-16T22:16:12.537Z,19.06
2016-01-16T22:17:12.586Z,19.11
2016-01-16T22:18:12.746Z,18.99
2016-01-16T22:19:12.701Z,19.02
2016-01-16T22:20:12.766Z,19.08
2016-01-16T22:21:12.738Z,18.99
2016-01-16T22:22:12.757Z,19.08
2016-01-16T22:23:12.899Z,19.08
2016-01-16T22:24:12.871Z,19.05
2016-01-16T22:25:12.937Z,19.05
2016-01-16T22:26:12.954Z,19.02
2016-01-16T22:27:13.051Z,19.02
2016-01-16T22:28:13.023Z,19.06
2016-01-16T22:29:13.165Z,19.06
2016-01-16T22:30:13.106Z,19.05
2016-01-16T22:31:13.170Z,19.02
2016-01-16T22:32:13.268Z,19.08
2016-01-16T22:33:13.239Z,19.05
2016-01-16T22:34:13.273Z,18.99
2016-01-16T22:35:13.323Z,19.08
2016-01-16T22:36:13.356Z,18.99
2016-01-16T22:37:13.453Z,19.13
2016-01-16T22:38:13.440Z,19.08
2016-01-16T22:39:13.506Z,19.05
2016-01-16T22:40:13.555Z,19.08
2016-01-16T22:41:13.572Z,19.14
2016-01-16T22:42:13.607Z,19.02
2016-01-16T22:43:13.625Z,19.08
2016-01-16T22:44:13.738Z,19.01
2016-01-16T22:45:13.740Z,18.98
2016-01-16T22:46:13.993Z,19.08
2016-01-16T22:47:13.821Z,18.98
2016-01-16T22:48:13.886Z,18.98
2016-01-16T22:49:13.952Z,18.98
2016-01-16T22:50:14.016Z,19.02
2016-01-16T22:51:13.972Z,18.95
2016-01-16T22:52:14.132Z,18.92
2016-01-16T22:53:14.072Z,18.89
2016-01-16T22:54:14.169Z,18.99
2016-01-16T22:55:14.186Z,18.95
2016-01-16T22:56:14.221Z,18.89
2016-01-16T22:57:14.285Z,18.92
2016-01-16T22:58:14.366Z,18.86
2016-01-16T22:59:14.354Z,18.94
2016-01-16T23:00:14.371Z,18.87
2016-01-16T23:01:14.437Z,18.84
2016-01-16T23:02:14.471Z,18.92
2016-01-16T23:03:14.557Z,18.99
2016-01-16T23:04:14.623Z,18.97
2016-01-16T23:05:14.594Z,18.9
2016-01-16T23:06:14.660Z,18.87
2016-01-16T23:07:14.584Z,18.94
2016-01-16T23:08:14.774Z,18.83
2016-01-16T23:09:14.807Z,18.83
2016-01-16T23:10:14.779Z,18.83
2016-01-16T23:11:14.829Z,18.87
2016-01-16T23:12:14.909Z,18.83
2016-01-16T23:13:14.943Z,18.76
2016-01-16T23:14:15.009Z,18.86
2016-01-16T23:15:15.059Z,18.77
2016-01-16T23:16:15.062Z,18.77
2016-01-16T23:17:15.095Z,18.8
2016-01-16T23:18:15.146Z,18.82
2016-01-16T23:19:15.195Z,18.86
2016-01-16T23:20:15.307Z,18.69
2016-01-16T23:21:15.498Z,18.82
2016-01-16T23:22:15.297Z,18.74
2016-01-16T23:23:15.362Z,18.77
2016-01-16T23:24:15.396Z,18.68
2016-01-16T23:25:15.431Z,18.76
2016-01-16T23:26:15.527Z,18.71
2016-01-16T23:27:15.561Z,18.69
2016-01-16T23:28:15.548Z,18.76
2016-01-16T23:29:15.645Z,18.77
2016-01-16T23:30:15.648Z,18.76
2016-01-16T23:31:15.665Z,18.76
2016-01-16T23:32:15.840Z,18.8
2016-01-16T23:33:15.858Z,18.74
2016-01-16T23:34:15.892Z,18.89
2016-01-16T23:35:15.847Z,18.84
2016-01-16T23:36:15.913Z,18.84
2016-01-16T23:37:15.995Z,18.89
2016-01-16T23:38:16.091Z,18.86
2016-01-16T23:39:15.999Z,18.82
2016-01-16T23:40:16.128Z,18.86
2016-01-16T23:41:16.099Z,18.79
2016-01-16T23:42:16.180Z,18.86
2016-01-16T23:43:16.230Z,18.84
2016-01-16T23:44:16.310Z,18.9
2016-01-16T23:45:16.359Z,18.82
2016-01-16T23:46:16.377Z,18.86
2016-01-16T23:47:16.428Z,18.94
2016-01-16T23:48:16.399Z,18.84
2016-01-16T23:49:16.449Z,18.87
2016-01-16T23:50:16.498Z,18.87
2016-01-16T23:51:16.594Z,18.87
2016-01-16T23:52:16.629Z,18.82
2016-01-16T23:53:16.599Z,18.86
2016-01-16T23:54:16.680Z,18.86
2016-01-16T23:55:16.746Z,18.87
2016-01-16T23:56:16.733Z,18.87
2016-01-16T23:57:16.798Z,18.86
2016-01-16T23:58:16.815Z,18.86
2016-01-16T23:59:16.850Z,18.86
